sensor_id;sensor_type;location;lat;lon;timestamp;temperature;humidity
6824;DHT22;58633;49.470;11.004;2023-06-19T00:02:03;23.60;42.60
6824;DHT22;58633;49.470;11.004;2023-06-19T00:04:28;23.50;42.50
6824;DHT22;58633;49.470;11.004;2023-06-19T00:06:54;23.70;42.80
6824;DHT22;58633;49.470;11.004;2023-06-19T00:09:19;23.90;43.00
6824;DHT22;58633;49.470;11.004;2023-06-19T00:11:45;23.70;42.80
6824;DHT22;58633;49.470;11.004;2023-06-19T00:14:11;23.70;42.90
6824;DHT22;58633;49.470;11.004;2023-06-19T00:16:36;23.40;42.50
6824;DHT22;58633;49.470;11.004;2023-06-19T00:19:02;23.70;42.70
6824;DHT22;58633;49.470;11.004;2023-06-19T00:21:28;23.70;42.80
6824;DHT22;58633;49.470;11.004;2023-06-19T00:23:54;23.50;42.70
6824;DHT22;58633;49.470;11.004;2023-06-19T00:26:20;23.70;43.00
6824;DHT22;58633;49.470;11.004;2023-06-19T00:28:51;23.60;42.90
6824;DHT22;58633;49.470;11.004;2023-06-19T00:31:17;23.50;42.90
6824;DHT22;58633;49.470;11.004;2023-06-19T00:33:44;23.60;43.00
6824;DHT22;58633;49.470;11.004;2023-06-19T00:36:16;23.80;43.40
6824;DHT22;58633;49.470;11.004;2023-06-19T00:38:47;23.50;43.20
6824;DHT22;58633;49.470;11.004;2023-06-19T00:43:39;23.50;43.20
6824;DHT22;58633;49.470;11.004;2023-06-19T00:46:04;23.40;43.10
6824;DHT22;58633;49.470;11.004;2023-06-19T00:48:31;23.40;43.20
6824;DHT22;58633;49.470;11.004;2023-06-19T00:50:57;23.40;43.10
6824;DHT22;58633;49.470;11.004;2023-06-19T00:53:24;23.10;42.90
6824;DHT22;58633;49.470;11.004;2023-06-19T00:55:51;23.40;43.10
6824;DHT22;58633;49.470;11.004;2023-06-19T00:58:22;23.30;43.00
6824;DHT22;58633;49.470;11.004;2023-06-19T01:00:48;23.30;43.10
6824;DHT22;58633;49.470;11.004;2023-06-19T01:03:14;23.40;43.30
6824;DHT22;58633;49.470;11.004;2023-06-19T01:05:40;23.30;43.20
6824;DHT22;58633;49.470;11.004;2023-06-19T01:08:34;23.40;43.30
6824;DHT22;58633;49.470;11.004;2023-06-19T01:13:34;23.20;42.50
6824;DHT22;58633;49.470;11.004;2023-06-19T01:16:03;23.00;42.00
6824;DHT22;58633;49.470;11.004;2023-06-19T01:18:30;23.20;41.90
6824;DHT22;58633;49.470;11.004;2023-06-19T01:20:57;23.00;41.60
6824;DHT22;58633;49.470;11.004;2023-06-19T01:25:48;23.20;41.30
6824;DHT22;58633;49.470;11.004;2023-06-19T01:28:14;23.30;41.20
6824;DHT22;58633;49.470;11.004;2023-06-19T01:30:41;23.20;41.10
6824;DHT22;58633;49.470;11.004;2023-06-19T01:33:19;23.20;41.10
6824;DHT22;58633;49.470;11.004;2023-06-19T01:35:46;23.10;41.10
6824;DHT22;58633;49.470;11.004;2023-06-19T01:38:13;23.00;41.00
6824;DHT22;58633;49.470;11.004;2023-06-19T01:40:40;23.00;40.90
6824;DHT22;58633;49.470;11.004;2023-06-19T01:43:08;22.90;40.90
6824;DHT22;58633;49.470;11.004;2023-06-19T01:45:34;22.60;40.80
6824;DHT22;58633;49.470;11.004;2023-06-19T01:47:59;23.00;41.20
6824;DHT22;58633;49.470;11.004;2023-06-19T01:50:25;22.60;40.90
6824;DHT22;58633;49.470;11.004;2023-06-19T01:52:51;22.80;41.20
6824;DHT22;58633;49.470;11.004;2023-06-19T01:57:43;22.70;41.10
6824;DHT22;58633;49.470;11.004;2023-06-19T02:00:11;22.60;41.10
6824;DHT22;58633;49.470;11.004;2023-06-19T02:02:37;22.60;41.10
6824;DHT22;58633;49.470;11.004;2023-06-19T02:05:03;22.70;41.30
6824;DHT22;58633;49.470;11.004;2023-06-19T02:09:54;22.50;41.20
6824;DHT22;58633;49.470;11.004;2023-06-19T02:12:20;22.70;41.40
6824;DHT22;58633;49.470;11.004;2023-06-19T02:17:11;22.60;41.40
6824;DHT22;58633;49.470;11.004;2023-06-19T02:19:37;22.50;41.30
6824;DHT22;58633;49.470;11.004;2023-06-19T02:22:02;22.40;41.40
6824;DHT22;58633;49.470;11.004;2023-06-19T02:26:54;22.40;41.40
6824;DHT22;58633;49.470;11.004;2023-06-19T02:29:19;22.60;41.60
6824;DHT22;58633;49.470;11.004;2023-06-19T02:34:11;22.50;41.60
6824;DHT22;58633;49.470;11.004;2023-06-19T02:36:37;22.70;41.60
6824;DHT22;58633;49.470;11.004;2023-06-19T02:39:05;22.50;41.40
6824;DHT22;58633;49.470;11.004;2023-06-19T02:43:57;22.50;41.50
6824;DHT22;58633;49.470;11.004;2023-06-19T02:46:23;22.60;41.60
6824;DHT22;58633;49.470;11.004;2023-06-19T02:51:14;22.50;41.60
6824;DHT22;58633;49.470;11.004;2023-06-19T02:58:33;22.40;41.60
6824;DHT22;58633;49.470;11.004;2023-06-19T03:03:25;22.40;41.60
6824;DHT22;58633;49.470;11.004;2023-06-19T03:05:51;22.50;41.70
6824;DHT22;58633;49.470;11.004;2023-06-19T03:08:16;22.60;41.90
6824;DHT22;58633;49.470;11.004;2023-06-19T03:10:42;22.20;41.50
6824;DHT22;58633;49.470;11.004;2023-06-19T03:13:07;22.30;41.60
6824;DHT22;58633;49.470;11.004;2023-06-19T03:15:33;22.50;41.80
6824;DHT22;58633;49.470;11.004;2023-06-19T03:17:58;22.20;41.60
6824;DHT22;58633;49.470;11.004;2023-06-19T03:20:24;22.40;41.80
6824;DHT22;58633;49.470;11.004;2023-06-19T03:22:50;22.50;41.80
6824;DHT22;58633;49.470;11.004;2023-06-19T03:25:15;22.40;41.90
6824;DHT22;58633;49.470;11.004;2023-06-19T03:27:41;22.50;42.00
6824;DHT22;58633;49.470;11.004;2023-06-19T03:30:07;22.50;42.10
6824;DHT22;58633;49.470;11.004;2023-06-19T03:37:25;22.60;42.20
6824;DHT22;58633;49.470;11.004;2023-06-19T03:42:17;22.70;42.30
6824;DHT22;58633;49.470;11.004;2023-06-19T03:47:08;22.50;42.40
6824;DHT22;58633;49.470;11.004;2023-06-19T03:52:00;22.50;42.70
6824;DHT22;58633;49.470;11.004;2023-06-19T03:54:25;22.60;42.80
6824;DHT22;58633;49.470;11.004;2023-06-19T03:56:52;22.40;42.90
6824;DHT22;58633;49.470;11.004;2023-06-19T03:59:17;22.50;43.10
6824;DHT22;58633;49.470;11.004;2023-06-19T04:01:43;22.30;43.20
6824;DHT22;58633;49.470;11.004;2023-06-19T04:04:09;22.30;43.20
6824;DHT22;58633;49.470;11.004;2023-06-19T04:06:34;22.40;43.40
6824;DHT22;58633;49.470;11.004;2023-06-19T04:09:00;22.30;43.40
6824;DHT22;58633;49.470;11.004;2023-06-19T04:11:25;22.60;43.80
6824;DHT22;58633;49.470;11.004;2023-06-19T04:13:51;22.60;43.80
6824;DHT22;58633;49.470;11.004;2023-06-19T04:16:16;22.70;44.10
6824;DHT22;58633;49.470;11.004;2023-06-19T04:18:42;22.50;44.00
6824;DHT22;58633;49.470;11.004;2023-06-19T04:21:07;22.50;44.10
6824;DHT22;58633;49.470;11.004;2023-06-19T04:23:33;22.60;44.40
6824;DHT22;58633;49.470;11.004;2023-06-19T04:25:58;22.50;44.50
6824;DHT22;58633;49.470;11.004;2023-06-19T04:28:24;22.50;44.50
6824;DHT22;58633;49.470;11.004;2023-06-19T04:35:51;22.40;44.90
6824;DHT22;58633;49.470;11.004;2023-06-19T04:38:16;22.40;45.00
6824;DHT22;58633;49.470;11.004;2023-06-19T04:40:42;22.20;45.20
6824;DHT22;58633;49.470;11.004;2023-06-19T04:43:08;22.50;45.80
6824;DHT22;58633;49.470;11.004;2023-06-19T04:45:34;22.40;46.00
6824;DHT22;58633;49.470;11.004;2023-06-19T04:47:59;22.40;45.90
6824;DHT22;58633;49.470;11.004;2023-06-19T04:50:28;22.40;46.00
6824;DHT22;58633;49.470;11.004;2023-06-19T04:52:54;22.50;46.00
6824;DHT22;58633;49.470;11.004;2023-06-19T04:55:19;22.50;46.10
6824;DHT22;58633;49.470;11.004;2023-06-19T04:57:45;22.60;46.30
6824;DHT22;58633;49.470;11.004;2023-06-19T05:00:10;22.50;46.60
6824;DHT22;58633;49.470;11.004;2023-06-19T05:02:36;22.30;46.40
6824;DHT22;58633;49.470;11.004;2023-06-19T05:05:02;22.50;46.60
6824;DHT22;58633;49.470;11.004;2023-06-19T05:07:32;22.30;46.50
6824;DHT22;58633;49.470;11.004;2023-06-19T05:09:58;22.40;46.70
6824;DHT22;58633;49.470;11.004;2023-06-19T05:12:24;22.30;46.80
6824;DHT22;58633;49.470;11.004;2023-06-19T05:14:50;22.50;47.00
6824;DHT22;58633;49.470;11.004;2023-06-19T05:17:15;22.40;46.70
6824;DHT22;58633;49.470;11.004;2023-06-19T05:19:41;22.60;46.90
6824;DHT22;58633;49.470;11.004;2023-06-19T05:24:33;22.60;46.80
6824;DHT22;58633;49.470;11.004;2023-06-19T05:26:59;22.70;47.10
6824;DHT22;58633;49.470;11.004;2023-06-19T05:31:50;22.60;47.20
6824;DHT22;58633;49.470;11.004;2023-06-19T05:34:16;22.80;47.30
6824;DHT22;58633;49.470;11.004;2023-06-19T05:44:03;22.80;47.40
6824;DHT22;58633;49.470;11.004;2023-06-19T05:46:29;22.90;47.80
6824;DHT22;58633;49.470;11.004;2023-06-19T05:51:20;23.10;48.30
6824;DHT22;58633;49.470;11.004;2023-06-19T05:53:46;23.10;48.10
6824;DHT22;58633;49.470;11.004;2023-06-19T05:56:12;23.40;48.40
6824;DHT22;58633;49.470;11.004;2023-06-19T06:01:04;23.40;48.40
6824;DHT22;58633;49.470;11.004;2023-06-19T06:03:30;23.50;48.60
6824;DHT22;58633;49.470;11.004;2023-06-19T06:08:30;23.40;48.70
6824;DHT22;58633;49.470;11.004;2023-06-19T06:10:56;23.60;49.20
6824;DHT22;58633;49.470;11.004;2023-06-19T06:15:48;23.40;49.40
6824;DHT22;58633;49.470;11.004;2023-06-19T06:18:13;23.20;49.60
6824;DHT22;58633;49.470;11.004;2023-06-19T06:20:39;23.50;50.00
6824;DHT22;58633;49.470;11.004;2023-06-19T06:25:30;23.50;50.20
6824;DHT22;58633;49.470;11.004;2023-06-19T06:27:56;23.60;50.60
6824;DHT22;58633;49.470;11.004;2023-06-19T06:30:21;23.70;51.20
6824;DHT22;58633;49.470;11.004;2023-06-19T06:32:48;23.60;51.10
6824;DHT22;58633;49.470;11.004;2023-06-19T06:35:13;23.60;51.20
6824;DHT22;58633;49.470;11.004;2023-06-19T06:37:39;23.40;51.70
6824;DHT22;58633;49.470;11.004;2023-06-19T06:40:06;23.60;51.40
6824;DHT22;58633;49.470;11.004;2023-06-19T06:42:35;23.20;51.00
6824;DHT22;58633;49.470;11.004;2023-06-19T06:45:00;23.70;51.20
6824;DHT22;58633;49.470;11.004;2023-06-19T06:47:25;23.80;51.40
6824;DHT22;58633;49.470;11.004;2023-06-19T06:49:51;23.80;51.20
6824;DHT22;58633;49.470;11.004;2023-06-19T06:52:17;23.80;51.20
6824;DHT22;58633;49.470;11.004;2023-06-19T06:54:42;24.10;51.40
6824;DHT22;58633;49.470;11.004;2023-06-19T06:59:34;24.20;51.20
6824;DHT22;58633;49.470;11.004;2023-06-19T07:01:59;24.20;51.00
6824;DHT22;58633;49.470;11.004;2023-06-19T07:04:25;24.30;51.00
6824;DHT22;58633;49.470;11.004;2023-06-19T07:11:43;24.30;50.90
6824;DHT22;58633;49.470;11.004;2023-06-19T07:14:08;24.40;50.90
6824;DHT22;58633;49.470;11.004;2023-06-19T07:21:27;24.70;51.10
6824;DHT22;58633;49.470;11.004;2023-06-19T07:26:19;24.70;51.20
6824;DHT22;58633;49.470;11.004;2023-06-19T07:33:36;25.20;51.30
6824;DHT22;58633;49.470;11.004;2023-06-19T07:38:28;25.10;51.00
6824;DHT22;58633;49.470;11.004;2023-06-19T07:40:53;24.90;50.90
6824;DHT22;58633;49.470;11.004;2023-06-19T07:43:19;25.10;51.10
6824;DHT22;58633;49.470;11.004;2023-06-19T07:48:13;25.30;51.30
6824;DHT22;58633;49.470;11.004;2023-06-19T07:50:39;25.30;51.20
6824;DHT22;58633;49.470;11.004;2023-06-19T07:55:30;25.30;51.20
6824;DHT22;58633;49.470;11.004;2023-06-19T07:57:56;25.20;51.10
6824;DHT22;58633;49.470;11.004;2023-06-19T08:00:23;25.30;51.40
6824;DHT22;58633;49.470;11.004;2023-06-19T08:05:15;25.40;51.40
6824;DHT22;58633;49.470;11.004;2023-06-19T08:07:41;25.30;51.80
6824;DHT22;58633;49.470;11.004;2023-06-19T08:10:07;25.30;51.20
6824;DHT22;58633;49.470;11.004;2023-06-19T08:12:33;25.30;51.30
6824;DHT22;58633;49.470;11.004;2023-06-19T08:14:59;25.30;51.30
6824;DHT22;58633;49.470;11.004;2023-06-19T08:17:25;25.50;51.40
6824;DHT22;58633;49.470;11.004;2023-06-19T08:19:50;30.50;55.20
6824;DHT22;58633;49.470;11.004;2023-06-19T08:22:16;25.60;51.60
6824;DHT22;58633;49.470;11.004;2023-06-19T08:29:33;25.60;50.80
6824;DHT22;58633;49.470;11.004;2023-06-19T08:31:59;24.80;50.80
6824;DHT22;58633;49.470;11.004;2023-06-19T08:34:25;25.80;52.30
6824;DHT22;58633;49.470;11.004;2023-06-19T08:36:51;26.60;52.30
6824;DHT22;58633;49.470;11.004;2023-06-19T08:39:16;26.00;51.10
6824;DHT22;58633;49.470;11.004;2023-06-19T08:41:42;26.10;50.80
6824;DHT22;58633;49.470;11.004;2023-06-19T08:44:08;26.30;50.50
6824;DHT22;58633;49.470;11.004;2023-06-19T08:46:34;26.40;50.30
6824;DHT22;58633;49.470;11.004;2023-06-19T08:49:02;26.40;50.10
6824;DHT22;58633;49.470;11.004;2023-06-19T08:54:00;26.80;50.00
6824;DHT22;58633;49.470;11.004;2023-06-19T08:58:52;26.80;49.50
6824;DHT22;58633;49.470;11.004;2023-06-19T09:01:19;26.70;50.00
6824;DHT22;58633;49.470;11.004;2023-06-19T09:03:45;26.60;49.90
6824;DHT22;58633;49.470;11.004;2023-06-19T09:06:15;26.80;50.00
6824;DHT22;58633;49.470;11.004;2023-06-19T09:08:41;26.80;50.00
6824;DHT22;58633;49.470;11.004;2023-06-19T09:11:07;26.90;50.00
6824;DHT22;58633;49.470;11.004;2023-06-19T09:13:33;26.70;49.70
6824;DHT22;58633;49.470;11.004;2023-06-19T09:16:06;26.90;50.30
6824;DHT22;58633;49.470;11.004;2023-06-19T09:18:44;26.80;49.60
6824;DHT22;58633;49.470;11.004;2023-06-19T09:21:21;26.90;49.50
6824;DHT22;58633;49.470;11.004;2023-06-19T09:23:49;27.30;49.60
6824;DHT22;58633;49.470;11.004;2023-06-19T09:26:17;27.40;49.30
6824;DHT22;58633;49.470;11.004;2023-06-19T09:31:12;27.50;49.10
6824;DHT22;58633;49.470;11.004;2023-06-19T09:33:40;27.30;49.50
6824;DHT22;58633;49.470;11.004;2023-06-19T09:36:06;27.40;49.00
6824;DHT22;58633;49.470;11.004;2023-06-19T09:38:35;27.70;48.90
6824;DHT22;58633;49.470;11.004;2023-06-19T09:41:03;27.60;48.80
6824;DHT22;58633;49.470;11.004;2023-06-19T09:43:43;28.70;50.00
6824;DHT22;58633;49.470;11.004;2023-06-19T09:46:10;27.50;49.00
6824;DHT22;58633;49.470;11.004;2023-06-19T09:48:41;27.30;48.90
6824;DHT22;58633;49.470;11.004;2023-06-19T09:51:09;29.30;50.70
6824;DHT22;58633;49.470;11.004;2023-06-19T09:53:36;27.60;49.50
6824;DHT22;58633;49.470;11.004;2023-06-19T09:56:02;27.60;49.30
6824;DHT22;58633;49.470;11.004;2023-06-19T09:58:28;28.10;48.90
6824;DHT22;58633;49.470;11.004;2023-06-19T10:00:55;28.70;49.70
6824;DHT22;58633;49.470;11.004;2023-06-19T10:03:20;29.80;50.30
6824;DHT22;58633;49.470;11.004;2023-06-19T10:05:46;30.70;50.60
6824;DHT22;58633;49.470;11.004;2023-06-19T10:08:13;28.20;48.10
6824;DHT22;58633;49.470;11.004;2023-06-19T10:10:47;28.10;48.10
6824;DHT22;58633;49.470;11.004;2023-06-19T10:13:17;28.50;48.80
6824;DHT22;58633;49.470;11.004;2023-06-19T10:15:44;28.60;48.10
6824;DHT22;58633;49.470;11.004;2023-06-19T10:18:14;31.30;50.20
6824;DHT22;58633;49.470;11.004;2023-06-19T10:20:41;28.60;47.40
6824;DHT22;58633;49.470;11.004;2023-06-19T10:23:18;28.70;47.90
6824;DHT22;58633;49.470;11.004;2023-06-19T10:25:49;28.60;47.30
6824;DHT22;58633;49.470;11.004;2023-06-19T10:28:21;28.60;48.40
6824;DHT22;58633;49.470;11.004;2023-06-19T10:31:04;28.80;47.40
6824;DHT22;58633;49.470;11.004;2023-06-19T10:33:35;29.10;47.10
6824;DHT22;58633;49.470;11.004;2023-06-19T10:36:19;29.50;46.80
6824;DHT22;58633;49.470;11.004;2023-06-19T10:38:45;30.70;47.90
6824;DHT22;58633;49.470;11.004;2023-06-19T10:41:16;31.80;48.30
6824;DHT22;58633;49.470;11.004;2023-06-19T10:43:52;29.70;46.80
6824;DHT22;58633;49.470;11.004;2023-06-19T10:46:18;30.20;45.70
6824;DHT22;58633;49.470;11.004;2023-06-19T10:48:44;30.30;45.20
6824;DHT22;58633;49.470;11.004;2023-06-19T10:51:11;30.30;45.00
6824;DHT22;58633;49.470;11.004;2023-06-19T10:53:37;30.40;44.60
6824;DHT22;58633;49.470;11.004;2023-06-19T10:56:03;30.20;44.40
6824;DHT22;58633;49.470;11.004;2023-06-19T11:00:55;30.30;44.50
6824;DHT22;58633;49.470;11.004;2023-06-19T11:03:22;30.40;44.40
6824;DHT22;58633;49.470;11.004;2023-06-19T11:05:48;30.30;44.30
6824;DHT22;58633;49.470;11.004;2023-06-19T11:08:18;35.50;48.10
6824;DHT22;58633;49.470;11.004;2023-06-19T11:10:44;30.30;44.80
6824;DHT22;58633;49.470;11.004;2023-06-19T11:13:14;30.20;44.30
6824;DHT22;58633;49.470;11.004;2023-06-19T11:18:06;30.30;44.40
6824;DHT22;58633;49.470;11.004;2023-06-19T11:20:49;30.50;44.00
6824;DHT22;58633;49.470;11.004;2023-06-19T11:23:26;30.50;44.50
6824;DHT22;58633;49.470;11.004;2023-06-19T11:25:52;30.40;44.40
6824;DHT22;58633;49.470;11.004;2023-06-19T11:28:17;30.80;43.50
6824;DHT22;58633;49.470;11.004;2023-06-19T11:30:57;31.10;43.40
6824;DHT22;58633;49.470;11.004;2023-06-19T11:33:23;31.10;43.80
6824;DHT22;58633;49.470;11.004;2023-06-19T11:35:49;31.50;43.40
6824;DHT22;58633;49.470;11.004;2023-06-19T11:38:23;32.30;41.80
6824;DHT22;58633;49.470;11.004;2023-06-19T11:40:49;31.80;40.80
6824;DHT22;58633;49.470;11.004;2023-06-19T11:45:50;31.90;40.80
6824;DHT22;58633;49.470;11.004;2023-06-19T11:48:27;31.80;40.70
6824;DHT22;58633;49.470;11.004;2023-06-19T11:50:53;32.20;40.90
6824;DHT22;58633;49.470;11.004;2023-06-19T11:53:20;32.50;41.60
6824;DHT22;58633;49.470;11.004;2023-06-19T11:55:46;32.50;40.70
6824;DHT22;58633;49.470;11.004;2023-06-19T11:58:12;33.30;40.50
6824;DHT22;58633;49.470;11.004;2023-06-19T12:00:38;34.80;38.20
6824;DHT22;58633;49.470;11.004;2023-06-19T12:03:04;37.40;36.80
6824;DHT22;58633;49.470;11.004;2023-06-19T12:05:30;39.10;37.80
6824;DHT22;58633;49.470;11.004;2023-06-19T12:07:56;40.60;32.90
6824;DHT22;58633;49.470;11.004;2023-06-19T12:10:21;41.20;31.00
6824;DHT22;58633;49.470;11.004;2023-06-19T12:12:47;38.70;33.30
6824;DHT22;58633;49.470;11.004;2023-06-19T12:15:12;39.20;33.40
6824;DHT22;58633;49.470;11.004;2023-06-19T12:17:38;43.00;30.30
6824;DHT22;58633;49.470;11.004;2023-06-19T12:20:04;41.80;29.90
6824;DHT22;58633;49.470;11.004;2023-06-19T12:22:34;41.60;28.90
6824;DHT22;58633;49.470;11.004;2023-06-19T12:25:00;39.60;30.10
6824;DHT22;58633;49.470;11.004;2023-06-19T12:29:52;39.60;31.70
6824;DHT22;58633;49.470;11.004;2023-06-19T12:32:20;46.10;27.60
6824;DHT22;58633;49.470;11.004;2023-06-19T12:34:46;46.20;27.10
6824;DHT22;58633;49.470;11.004;2023-06-19T12:37:15;44.70;26.80
6824;DHT22;58633;49.470;11.004;2023-06-19T12:39:43;43.30;28.30
6824;DHT22;58633;49.470;11.004;2023-06-19T12:42:09;43.40;28.40
6824;DHT22;58633;49.470;11.004;2023-06-19T12:44:40;45.90;27.00
6824;DHT22;58633;49.470;11.004;2023-06-19T12:47:07;46.70;26.10
6824;DHT22;58633;49.470;11.004;2023-06-19T12:49:33;44.70;26.60
6824;DHT22;58633;49.470;11.004;2023-06-19T12:51:58;46.60;26.00
6824;DHT22;58633;49.470;11.004;2023-06-19T12:56:50;46.90;25.00
6824;DHT22;58633;49.470;11.004;2023-06-19T12:59:16;47.70;25.60
6824;DHT22;58633;49.470;11.004;2023-06-19T13:01:42;47.00;24.10
6824;DHT22;58633;49.470;11.004;2023-06-19T13:04:08;43.00;26.30
6824;DHT22;58633;49.470;11.004;2023-06-19T13:06:33;43.00;27.10
6824;DHT22;58633;49.470;11.004;2023-06-19T13:09:01;42.70;27.20
6824;DHT22;58633;49.470;11.004;2023-06-19T13:11:27;42.40;27.40
6824;DHT22;58633;49.470;11.004;2023-06-19T13:13:52;46.60;26.40
6824;DHT22;58633;49.470;11.004;2023-06-19T13:16:18;49.70;24.20
6824;DHT22;58633;49.470;11.004;2023-06-19T13:18:44;49.60;24.20
6824;DHT22;58633;49.470;11.004;2023-06-19T13:21:10;49.60;24.20
6824;DHT22;58633;49.470;11.004;2023-06-19T13:23:36;50.60;23.70
6824;DHT22;58633;49.470;11.004;2023-06-19T13:26:01;50.30;23.60
6824;DHT22;58633;49.470;11.004;2023-06-19T13:28:27;52.10;22.80
6824;DHT22;58633;49.470;11.004;2023-06-19T13:30:52;52.20;23.20
6824;DHT22;58633;49.470;11.004;2023-06-19T13:33:18;50.70;23.00
6824;DHT22;58633;49.470;11.004;2023-06-19T13:35:43;48.20;23.30
6824;DHT22;58633;49.470;11.004;2023-06-19T13:38:09;44.40;25.40
6824;DHT22;58633;49.470;11.004;2023-06-19T13:40:35;46.10;29.60
6824;DHT22;58633;49.470;11.004;2023-06-19T13:43:01;40.10;28.60
6824;DHT22;58633;49.470;11.004;2023-06-19T13:45:29;39.00;29.60
6824;DHT22;58633;49.470;11.004;2023-06-19T13:47:55;37.20;31.10
6824;DHT22;58633;49.470;11.004;2023-06-19T13:50:21;36.60;31.90
6824;DHT22;58633;49.470;11.004;2023-06-19T13:55:14;35.90;32.80
6824;DHT22;58633;49.470;11.004;2023-06-19T13:57:40;35.40;33.30
6824;DHT22;58633;49.470;11.004;2023-06-19T14:00:07;34.90;33.60
6824;DHT22;58633;49.470;11.004;2023-06-19T14:02:32;34.70;34.10
6824;DHT22;58633;49.470;11.004;2023-06-19T14:04:58;34.50;34.70
6824;DHT22;58633;49.470;11.004;2023-06-19T14:07:25;34.40;34.90
6824;DHT22;58633;49.470;11.004;2023-06-19T14:09:52;34.30;35.20
6824;DHT22;58633;49.470;11.004;2023-06-19T14:12:18;34.30;35.20
6824;DHT22;58633;49.470;11.004;2023-06-19T14:19:36;34.10;35.30
6824;DHT22;58633;49.470;11.004;2023-06-19T14:22:01;33.80;35.90
6824;DHT22;58633;49.470;11.004;2023-06-19T14:24:27;33.50;36.20
6824;DHT22;58633;49.470;11.004;2023-06-19T14:26:53;33.40;36.50
6824;DHT22;58633;49.470;11.004;2023-06-19T14:29:18;33.30;36.80
6824;DHT22;58633;49.470;11.004;2023-06-19T14:31:46;33.10;37.00
6824;DHT22;58633;49.470;11.004;2023-06-19T14:36:41;34.20;36.80
6824;DHT22;58633;49.470;11.004;2023-06-19T14:41:33;33.50;36.80
6824;DHT22;58633;49.470;11.004;2023-06-19T14:43:58;33.10;37.50
6824;DHT22;58633;49.470;11.004;2023-06-19T14:48:50;32.60;38.90
6824;DHT22;58633;49.470;11.004;2023-06-19T14:51:16;32.10;39.00
6824;DHT22;58633;49.470;11.004;2023-06-19T14:53:42;32.00;39.80
6824;DHT22;58633;49.470;11.004;2023-06-19T14:56:07;31.60;40.70
6824;DHT22;58633;49.470;11.004;2023-06-19T14:58:33;31.40;42.20
6824;DHT22;58633;49.470;11.004;2023-06-19T15:00:58;30.80;44.60
6824;DHT22;58633;49.470;11.004;2023-06-19T15:03:23;30.50;45.70
6824;DHT22;58633;49.470;11.004;2023-06-19T15:05:49;30.10;46.30
6824;DHT22;58633;49.470;11.004;2023-06-19T15:08:15;29.90;46.50
6824;DHT22;58633;49.470;11.004;2023-06-19T15:10:46;29.80;46.70
6824;DHT22;58633;49.470;11.004;2023-06-19T15:13:12;29.80;47.20
6824;DHT22;58633;49.470;11.004;2023-06-19T15:15:37;29.60;48.10
6824;DHT22;58633;49.470;11.004;2023-06-19T15:18:03;28.60;53.00
6824;DHT22;58633;49.470;11.004;2023-06-19T15:20:28;26.90;59.80
6824;DHT22;58633;49.470;11.004;2023-06-19T15:22:54;25.70;62.40
6824;DHT22;58633;49.470;11.004;2023-06-19T15:25:19;25.30;64.50
6824;DHT22;58633;49.470;11.004;2023-06-19T15:27:45;24.90;64.60
6824;DHT22;58633;49.470;11.004;2023-06-19T15:30:11;24.60;65.60
6824;DHT22;58633;49.470;11.004;2023-06-19T15:32:36;24.70;66.70
6824;DHT22;58633;49.470;11.004;2023-06-19T15:35:02;24.70;66.50
6824;DHT22;58633;49.470;11.004;2023-06-19T15:37:28;24.70;67.30
6824;DHT22;58633;49.470;11.004;2023-06-19T15:39:53;24.50;66.80
6824;DHT22;58633;49.470;11.004;2023-06-19T15:42:20;24.60;67.00
6824;DHT22;58633;49.470;11.004;2023-06-19T15:44:46;24.50;66.60
6824;DHT22;58633;49.470;11.004;2023-06-19T15:47:12;24.50;69.10
6824;DHT22;58633;49.470;11.004;2023-06-19T15:49:37;24.50;69.70
6824;DHT22;58633;49.470;11.004;2023-06-19T15:52:04;24.30;71.90
6824;DHT22;58633;49.470;11.004;2023-06-19T15:54:30;24.30;74.00
6824;DHT22;58633;49.470;11.004;2023-06-19T15:56:55;24.50;74.60
6824;DHT22;58633;49.470;11.004;2023-06-19T15:59:21;24.70;75.60
6824;DHT22;58633;49.470;11.004;2023-06-19T16:01:46;24.90;74.70
6824;DHT22;58633;49.470;11.004;2023-06-19T16:04:12;24.70;74.20
6824;DHT22;58633;49.470;11.004;2023-06-19T16:06:37;25.20;77.70
6824;DHT22;58633;49.470;11.004;2023-06-19T16:09:05;25.50;78.40
6824;DHT22;58633;49.470;11.004;2023-06-19T16:11:30;25.40;76.80
6824;DHT22;58633;49.470;11.004;2023-06-19T16:13:56;25.80;76.40
6824;DHT22;58633;49.470;11.004;2023-06-19T16:16:21;26.20;79.90
6824;DHT22;58633;49.470;11.004;2023-06-19T16:18:47;26.40;82.50
6824;DHT22;58633;49.470;11.004;2023-06-19T16:21:12;26.50;78.80
6824;DHT22;58633;49.470;11.004;2023-06-19T16:23:40;26.40;78.40
6824;DHT22;58633;49.470;11.004;2023-06-19T16:26:06;26.50;76.80
6824;DHT22;58633;49.470;11.004;2023-06-19T16:30:57;26.70;70.90
6824;DHT22;58633;49.470;11.004;2023-06-19T16:33:23;26.90;68.90
6824;DHT22;58633;49.470;11.004;2023-06-19T16:35:48;26.90;68.00
6824;DHT22;58633;49.470;11.004;2023-06-19T16:38:14;27.00;67.80
6824;DHT22;58633;49.470;11.004;2023-06-19T16:40:40;27.20;66.50
6824;DHT22;58633;49.470;11.004;2023-06-19T16:43:05;27.60;66.20
6824;DHT22;58633;49.470;11.004;2023-06-19T16:47:57;27.70;61.40
6824;DHT22;58633;49.470;11.004;2023-06-19T16:50:24;27.90;61.10
6824;DHT22;58633;49.470;11.004;2023-06-19T16:52:50;28.00;59.80
6824;DHT22;58633;49.470;11.004;2023-06-19T16:55:15;28.40;59.20
6824;DHT22;58633;49.470;11.004;2023-06-19T16:57:41;28.60;58.60
6824;DHT22;58633;49.470;11.004;2023-06-19T17:00:07;28.50;57.60
6824;DHT22;58633;49.470;11.004;2023-06-19T17:02:35;28.70;57.30
6824;DHT22;58633;49.470;11.004;2023-06-19T17:05:01;28.70;57.50
6824;DHT22;58633;49.470;11.004;2023-06-19T17:07:26;28.80;57.20
6824;DHT22;58633;49.470;11.004;2023-06-19T17:09:52;28.50;56.30
6824;DHT22;58633;49.470;11.004;2023-06-19T17:12:18;28.50;56.30
6824;DHT22;58633;49.470;11.004;2023-06-19T17:14:43;28.50;56.90
6824;DHT22;58633;49.470;11.004;2023-06-19T17:17:11;28.10;57.00
6824;DHT22;58633;49.470;11.004;2023-06-19T17:19:37;28.20;58.60
6824;DHT22;58633;49.470;11.004;2023-06-19T17:22:03;28.30;58.50
6824;DHT22;58633;49.470;11.004;2023-06-19T17:26:54;28.00;59.80
6824;DHT22;58633;49.470;11.004;2023-06-19T17:29:24;28.00;59.90
6824;DHT22;58633;49.470;11.004;2023-06-19T17:31:50;28.10;61.30
6824;DHT22;58633;49.470;11.004;2023-06-19T17:34:16;28.00;61.90
6824;DHT22;58633;49.470;11.004;2023-06-19T17:36:41;28.20;61.80
6824;DHT22;58633;49.470;11.004;2023-06-19T17:39:07;28.20;61.90
6824;DHT22;58633;49.470;11.004;2023-06-19T17:41:32;28.10;62.80
6824;DHT22;58633;49.470;11.004;2023-06-19T17:44:04;27.90;63.20
6824;DHT22;58633;49.470;11.004;2023-06-19T17:46:30;27.80;62.90
6824;DHT22;58633;49.470;11.004;2023-06-19T17:48:56;27.80;63.00
6824;DHT22;58633;49.470;11.004;2023-06-19T17:51:21;27.90;63.60
6824;DHT22;58633;49.470;11.004;2023-06-19T17:53:48;28.00;62.80
6824;DHT22;58633;49.470;11.004;2023-06-19T17:56:13;28.00;63.00